createdAt,value
2022-08-16T00:00:03.309Z,75.74
2022-08-16T00:00:52.134Z,75.85
2022-08-16T00:01:50.605Z,75.25
2022-08-16T00:02:50.583Z,75.45
2022-08-16T00:03:50.577Z,75.55
2022-08-16T00:04:51.018Z,75.35
2022-08-16T00:05:57.616Z,75.45
2022-08-16T00:06:51.470Z,75.55
2022-08-16T00:07:56.059Z,75.55
2022-08-16T00:08:52.615Z,75.31
2022-08-16T00:09:50.436Z,75.11
2022-08-16T00:10:50.416Z,74.81
2022-08-16T00:11:52.746Z,75.11
2022-08-16T00:12:51.394Z,75.01
2022-08-16T00:13:54.665Z,75.11
2022-08-16T00:14:51.367Z,75.31
2022-08-16T00:15:54.200Z,75.35
2022-08-16T00:17:05.987Z,75.41
2022-08-16T00:17:56.865Z,75.31
2022-08-16T00:18:51.317Z,75.41
2022-08-16T00:19:53.663Z,75.74
2022-08-16T00:20:50.757Z,76.04
2022-08-16T00:21:52.247Z,76.34
2022-08-16T00:22:51.392Z,76.54
2022-08-16T00:23:50.230Z,76.84
2022-08-16T00:24:50.217Z,77.14
2022-08-16T00:26:36.074Z,77.34
2022-08-16T00:26:51.227Z,77.34
2022-08-16T00:27:50.178Z,77.44
2022-08-16T00:28:54.817Z,77.44
2022-08-16T00:30:00.559Z,77.64
2022-08-16T00:30:51.184Z,77.64
2022-08-16T00:32:00.066Z,78.18
2022-08-16T00:32:51.120Z,78.78
2022-08-16T00:33:51.095Z,78.88
2022-08-16T00:34:52.601Z,79.52
2022-08-16T00:35:50.930Z,79.91
2022-08-16T00:36:50.073Z,80.11
2022-08-16T00:37:58.744Z,80.41
2022-08-16T00:38:51.084Z,80.51
2022-08-16T00:39:57.217Z,81.01
2022-08-16T00:40:53.611Z,81.61
2022-08-16T00:41:50.045Z,81.92
2022-08-16T00:42:49.984Z,82.41
2022-08-16T00:43:50.000Z,82.11
2022-08-16T00:44:49.979Z,82.21
2022-08-16T00:45:58.498Z,82.21
2022-08-16T00:46:52.931Z,82.51
2022-08-16T00:47:50.915Z,82.71
2022-08-16T00:48:49.941Z,82.61
2022-08-16T00:49:56.229Z,82.61
2022-08-16T00:50:51.255Z,82.61
2022-08-16T00:51:55.290Z,82.95
2022-08-16T00:52:53.460Z,82.85
2022-08-16T00:53:49.829Z,83.15
2022-08-16T00:54:49.832Z,83.25
2022-08-16T00:55:49.829Z,83.15
2022-08-16T00:56:57.113Z,83.45
2022-08-16T00:58:00.145Z,84.15
2022-08-16T00:58:50.871Z,84.15
2022-08-16T00:59:59.057Z,84.35
2022-08-16T01:00:53.878Z,84.55
2022-08-16T01:01:49.734Z,84.75
2022-08-16T01:02:49.946Z,84.95
2022-08-16T01:03:49.734Z,85.15
2022-08-16T01:05:10.746Z,85.55
2022-08-16T01:05:50.674Z,85.85
2022-08-16T01:07:02.152Z,85.99
2022-08-16T01:07:53.432Z,85.79
2022-08-16T01:08:49.662Z,85.69
2022-08-16T01:09:53.347Z,85.69
2022-08-16T01:10:49.640Z,86.09
2022-08-16T01:11:54.081Z,86.09
2022-08-16T01:12:50.678Z,85.99
2022-08-16T01:13:49.574Z,85.79
2022-08-16T01:14:49.566Z,85.79
2022-08-16T01:15:52.798Z,85.79
2022-08-16T01:16:49.542Z,85.95
2022-08-16T01:17:56.101Z,86.25
2022-08-16T01:18:50.555Z,86.19
2022-08-16T01:19:49.493Z,86.39
2022-08-16T01:20:49.555Z,86.79
2022-08-16T01:21:49.478Z,86.59
2022-08-16T01:22:52.235Z,86.79
2022-08-16T01:23:58.489Z,87.09
2022-08-16T01:24:53.966Z,87.39
2022-08-16T01:26:00.039Z,87.49
2022-08-16T01:26:50.494Z,87.39
2022-08-16T01:27:49.395Z,87.49
2022-08-16T01:28:49.396Z,87.69
2022-08-16T01:29:56.752Z,87.69
2022-08-16T01:30:50.526Z,87.69
2022-08-16T01:31:49.459Z,87.79
2022-08-16T01:33:01.994Z,88.03
2022-08-16T01:33:50.316Z,88.33
2022-08-16T01:34:56.678Z,88.03
2022-08-16T01:35:52.258Z,88.23
2022-08-16T01:36:55.063Z,88.23
2022-08-16T01:37:54.064Z,88.33
2022-08-16T01:38:56.894Z,88.33
2022-08-16T01:39:50.300Z,88.13
2022-08-16T01:40:49.216Z,88.03
2022-08-16T01:41:49.207Z,88.13
2022-08-16T01:42:49.664Z,88.13
2022-08-16T01:43:54.108Z,88.03
2022-08-16T01:44:50.173Z,88.03
2022-08-16T01:45:49.196Z,88.23
2022-08-16T01:46:50.136Z,88.03
2022-08-16T01:47:51.226Z,88.03
2022-08-16T01:48:49.121Z,88.03
2022-08-16T01:50:43.164Z,87.93
2022-08-16T01:51:08.237Z,87.73
2022-08-16T01:51:50.070Z,87.73
2022-08-16T01:52:49.156Z,87.73
2022-08-16T01:53:54.632Z,87.83
2022-08-16T01:54:50.085Z,87.83
2022-08-16T01:55:54.085Z,87.93
2022-08-16T01:56:50.009Z,88.23
2022-08-16T01:57:53.439Z,88.43
2022-08-16T01:58:50.027Z,88.53
2022-08-16T01:59:48.999Z,88.53
2022-08-16T02:00:49.952Z,88.33
2022-08-16T02:01:49.900Z,88.33
2022-08-16T02:02:52.416Z,88.23
2022-08-16T02:03:50.618Z,88.33
2022-08-16T02:04:54.469Z,88.23
2022-08-16T02:05:52.125Z,88.48
2022-08-16T02:06:48.898Z,88.87
2022-08-16T02:07:48.904Z,88.98
2022-08-16T02:08:48.929Z,88.98
2022-08-16T02:09:58.431Z,89.07
2022-08-16T02:10:50.151Z,89.37
2022-08-16T02:11:53.116Z,89.37
2022-08-16T02:12:51.499Z,89.37
2022-08-16T02:13:48.812Z,89.58
2022-08-16T02:14:49.807Z,89.68
2022-08-16T02:15:48.770Z,89.87
2022-08-16T02:16:49.708Z,89.98
2022-08-16T02:17:48.727Z,90.12
2022-08-16T02:18:48.795Z,90.32
2022-08-16T02:19:59.561Z,90.52
2022-08-16T02:20:49.690Z,90.42
2022-08-16T02:22:08.688Z,89.98
2022-08-16T02:22:49.787Z,89.87
2022-08-16T02:23:48.644Z,89.62
2022-08-16T02:24:49.672Z,89.72
2022-08-16T02:25:52.858Z,90.02
2022-08-16T02:26:49.655Z,90.02
2022-08-16T02:27:50.828Z,90.02
2022-08-16T02:28:48.585Z,90.02
2022-08-16T02:29:48.577Z,90.12
2022-08-16T02:30:51.833Z,90.22
2022-08-16T02:32:04.068Z,90.22
2022-08-16T02:32:51.711Z,90.12
2022-08-16T02:33:50.003Z,90.02
2022-08-16T02:34:48.519Z,90.02
2022-08-16T02:35:53.892Z,90.22
2022-08-16T02:36:50.546Z,90.26
2022-08-16T02:37:52.310Z,90.46
2022-08-16T02:38:48.472Z,90.42
2022-08-16T02:39:54.138Z,90.46
2022-08-16T02:40:49.458Z,90.56
2022-08-16T02:41:52.989Z,90.56
2022-08-16T02:42:49.967Z,90.56
2022-08-16T02:43:48.454Z,90.56
2022-08-16T02:44:48.962Z,90.56
2022-08-16T02:45:48.358Z,90.66
2022-08-16T02:46:50.462Z,90.77
2022-08-16T02:48:01.367Z,90.66
2022-08-16T02:48:49.508Z,90.66
2022-08-16T02:50:01.433Z,90.56
2022-08-16T02:51:02.932Z,90.56
2022-08-16T02:51:50.233Z,90.46
2022-08-16T02:52:48.325Z,90.56
2022-08-16T02:53:48.260Z,90.56
2022-08-16T02:54:48.244Z,90.56
2022-08-16T02:55:50.576Z,90.66
2022-08-16T02:56:48.305Z,90.77
2022-08-16T02:57:54.408Z,90.77
2022-08-16T02:58:49.209Z,90.77
2022-08-16T02:59:48.183Z,90.91
2022-08-16T03:00:50.056Z,91.01
2022-08-16T03:01:48.194Z,91.11
2022-08-16T03:02:55.661Z,90.86
2022-08-16T03:04:28.940Z,90.81
2022-08-16T03:04:52.123Z,90.70
2022-08-16T03:05:50.050Z,90.81
2022-08-16T03:06:48.222Z,90.81
2022-08-16T03:07:50.996Z,91.01
2022-08-16T03:08:52.186Z,91.11
2022-08-16T03:09:49.041Z,91.20
2022-08-16T03:10:48.023Z,91.20
2022-08-16T03:11:48.022Z,91.20
2022-08-16T03:12:56.340Z,91.31
2022-08-16T03:13:49.011Z,91.31
2022-08-16T03:14:47.974Z,91.31
2022-08-16T03:15:49.574Z,91.41
2022-08-16T03:16:59.764Z,91.41
2022-08-16T03:17:53.577Z,91.31
2022-08-16T03:18:48.949Z,91.20
2022-08-16T03:19:59.519Z,91.31
2022-08-16T03:20:55.904Z,91.31
2022-08-16T03:21:48.996Z,91.45
2022-08-16T03:22:48.116Z,91.65
2022-08-16T03:23:48.478Z,91.65
2022-08-16T03:24:47.832Z,91.75
2022-08-16T03:25:48.513Z,91.75
2022-08-16T03:26:47.868Z,91.75
2022-08-16T03:27:47.831Z,91.75
2022-08-16T03:28:47.825Z,91.75
2022-08-16T03:29:54.233Z,91.85
2022-08-16T03:30:48.895Z,91.85
2022-08-16T03:31:52.288Z,91.85
2022-08-16T03:32:51.213Z,91.85
2022-08-16T03:33:47.727Z,91.85
2022-08-16T03:34:50.063Z,91.85
2022-08-16T03:35:47.848Z,91.96
2022-08-16T03:36:47.690Z,91.96
2022-08-16T03:38:03.013Z,92.05
2022-08-16T03:38:48.670Z,92.05
2022-08-16T03:39:47.765Z,92.15
2022-08-16T03:40:48.741Z,92.25
2022-08-16T03:41:50.563Z,92.15
2022-08-16T03:43:00.455Z,92.05
2022-08-16T03:43:51.948Z,92.05
2022-08-16T03:44:49.472Z,91.85
2022-08-16T03:45:47.646Z,91.75
2022-08-16T03:46:50.282Z,91.75
2022-08-16T03:47:47.561Z,91.75
2022-08-16T03:48:48.522Z,91.65
2022-08-16T03:49:47.528Z,91.55
2022-08-16T03:51:00.095Z,91.55
2022-08-16T03:51:48.495Z,91.35
2022-08-16T03:52:47.883Z,91.65
2022-08-16T03:54:00.731Z,91.85
2022-08-16T03:54:58.245Z,91.96
2022-08-16T03:55:48.461Z,92.05
2022-08-16T03:56:56.703Z,91.96
2022-08-16T03:57:52.327Z,91.81
2022-08-16T03:58:48.430Z,91.55
2022-08-16T03:59:47.387Z,91.55
2022-08-16T04:00:47.511Z,91.51
2022-08-16T04:01:48.467Z,91.41
2022-08-16T04:02:48.577Z,91.45
2022-08-16T04:03:47.357Z,91.55
2022-08-16T04:04:47.327Z,91.61
2022-08-16T04:05:47.313Z,91.51
2022-08-16T04:06:47.294Z,91.51
2022-08-16T04:07:47.300Z,91.51
2022-08-16T04:08:47.359Z,91.31
2022-08-16T04:09:47.277Z,91.20
2022-08-16T04:10:47.251Z,91.31
2022-08-16T04:11:47.262Z,91.45
2022-08-16T04:12:53.552Z,91.51
2022-08-16T04:13:58.964Z,91.65
2022-08-16T04:14:48.275Z,91.65
2022-08-16T04:15:47.198Z,91.75
2022-08-16T04:16:48.214Z,91.71
2022-08-16T04:17:47.158Z,91.41
2022-08-16T04:18:47.158Z,91.31
2022-08-16T04:19:47.149Z,91.41
2022-08-16T04:20:47.147Z,91.61
2022-08-16T04:21:47.475Z,91.61
2022-08-16T04:22:49.825Z,91.65
2022-08-16T04:23:47.114Z,91.61
2022-08-16T04:24:54.464Z,91.61
2022-08-16T04:25:48.725Z,91.51
2022-08-16T04:26:47.106Z,91.41
2022-08-16T04:27:53.952Z,91.31
2022-08-16T04:28:53.604Z,91.11
2022-08-16T04:29:48.025Z,91.11
2022-08-16T04:30:47.818Z,91.20
2022-08-16T04:31:46.955Z,91.11
2022-08-16T04:32:49.195Z,91.20
2022-08-16T04:33:50.639Z,91.55
2022-08-16T04:34:46.930Z,91.75
2022-08-16T04:35:50.989Z,91.96
2022-08-16T04:36:48.830Z,92.01
2022-08-16T04:37:46.889Z,91.81
2022-08-16T04:38:50.116Z,91.81
2022-08-16T04:39:57.047Z,91.61
2022-08-16T04:40:48.184Z,91.71
2022-08-16T04:41:46.868Z,91.61
2022-08-16T04:42:47.819Z,91.51
2022-08-16T04:43:46.828Z,91.51
2022-08-16T04:44:53.838Z,91.51
2022-08-16T04:45:47.830Z,91.51
2022-08-16T04:47:02.984Z,91.51
2022-08-16T04:47:47.752Z,91.71
2022-08-16T04:48:47.729Z,91.71
2022-08-16T04:49:46.735Z,91.71
2022-08-16T04:50:46.718Z,91.61
2022-08-16T04:51:53.731Z,91.51
2022-08-16T04:52:47.859Z,91.27
2022-08-16T04:53:46.697Z,91.11
2022-08-16T04:54:46.775Z,91.06
2022-08-16T04:55:46.674Z,91.06
2022-08-16T04:56:48.745Z,90.96
2022-08-16T04:57:46.630Z,90.96
2022-08-16T04:58:47.628Z,90.86
2022-08-16T04:59:46.648Z,90.86
2022-08-16T05:00:46.622Z,90.77
2022-08-16T05:01:58.055Z,90.77
2022-08-16T05:02:56.261Z,90.66
2022-08-16T05:03:59.816Z,90.66
2022-08-16T05:04:47.616Z,90.66
2022-08-16T05:05:59.586Z,90.56
2022-08-16T05:06:47.536Z,90.46
2022-08-16T05:07:58.579Z,90.26
2022-08-16T05:08:47.584Z,90.12
2022-08-16T05:09:49.161Z,89.82
2022-08-16T05:10:46.464Z,89.82
2022-08-16T05:11:46.903Z,89.92
2022-08-16T05:12:46.538Z,90.16
2022-08-16T05:13:46.403Z,90.22
2022-08-16T05:15:02.596Z,90.22
2022-08-16T05:15:47.422Z,90.06
2022-08-16T05:16:46.375Z,90.26
2022-08-16T05:17:46.579Z,90.32
2022-08-16T05:18:46.352Z,90.22
2022-08-16T05:19:46.825Z,90.22
2022-08-16T05:21:09.492Z,90.12
2022-08-16T05:21:47.299Z,89.92
2022-08-16T05:22:46.516Z,90.02
2022-08-16T05:23:51.750Z,90.16
2022-08-16T05:24:47.969Z,90.56
2022-08-16T05:25:48.257Z,90.66
2022-08-16T05:26:51.285Z,90.96
2022-08-16T05:27:47.295Z,91.06
2022-08-16T05:28:46.230Z,91.06
2022-08-16T05:30:01.079Z,90.96
2022-08-16T05:30:50.397Z,90.72
2022-08-16T05:31:47.977Z,90.72
2022-08-16T05:32:47.439Z,90.82
2022-08-16T05:33:46.150Z,90.72
2022-08-16T05:34:50.941Z,90.52
2022-08-16T05:35:54.784Z,90.32
2022-08-16T05:36:47.140Z,90.02
2022-08-16T05:37:46.179Z,89.62
2022-08-16T05:38:47.041Z,89.42
2022-08-16T05:39:46.091Z,89.52
2022-08-16T05:40:57.307Z,89.62
2022-08-16T05:41:47.083Z,89.62
2022-08-16T05:42:47.720Z,89.12
2022-08-16T05:43:47.610Z,89.02
2022-08-16T05:44:46.005Z,89.02
2022-08-16T05:45:45.981Z,89.02
2022-08-16T05:46:45.979Z,89.02
2022-08-16T05:47:45.959Z,88.92
2022-08-16T05:48:45.977Z,89.02
2022-08-16T05:49:50.560Z,88.78
2022-08-16T05:50:45.923Z,88.57
2022-08-16T05:51:47.017Z,88.57
2022-08-16T05:52:46.121Z,88.48
2022-08-16T05:53:45.879Z,88.48
2022-08-16T05:54:58.396Z,88.62
2022-08-16T05:55:46.853Z,89.02
2022-08-16T05:56:45.858Z,89.02
2022-08-16T05:57:45.855Z,89.02
2022-08-16T05:58:46.844Z,88.68
2022-08-16T05:59:45.810Z,88.68
2022-08-16T06:00:45.834Z,88.28
2022-08-16T06:01:45.829Z,87.98
2022-08-16T06:02:45.771Z,87.68
2022-08-16T06:03:45.774Z,87.57
2022-08-16T06:04:46.025Z,87.23
2022-08-16T06:05:45.729Z,87.27
2022-08-16T06:06:56.025Z,87.48
2022-08-16T06:07:46.709Z,87.18
2022-08-16T06:08:46.760Z,87.18
2022-08-16T06:09:45.689Z,86.93
2022-08-16T06:11:10.417Z,86.93
2022-08-16T06:11:46.699Z,87.03
2022-08-16T06:12:45.629Z,87.03
2022-08-16T06:13:46.677Z,86.93
2022-08-16T06:14:45.605Z,86.93
2022-08-16T06:15:45.597Z,86.03
2022-08-16T06:16:50.590Z,86.13
2022-08-16T06:17:46.592Z,85.93
2022-08-16T06:18:45.623Z,86.13
2022-08-16T06:19:45.565Z,85.83
2022-08-16T06:20:55.070Z,85.53
2022-08-16T06:21:55.382Z,85.73
2022-08-16T06:22:47.569Z,86.03
2022-08-16T06:23:46.572Z,86.03
2022-08-16T06:24:53.374Z,85.83
2022-08-16T06:25:52.901Z,85.83
2022-08-16T06:26:58.091Z,85.49
2022-08-16T06:27:57.043Z,85.53
2022-08-16T06:28:46.720Z,86.13
2022-08-16T06:29:50.010Z,86.43
2022-08-16T06:30:46.413Z,86.23
2022-08-16T06:31:45.398Z,86.03
2022-08-16T06:32:48.756Z,86.13
2022-08-16T06:33:45.366Z,86.53
2022-08-16T06:34:56.931Z,86.73
2022-08-16T06:35:46.330Z,86.73
2022-08-16T06:36:45.337Z,86.33
2022-08-16T06:37:51.228Z,86.23
2022-08-16T06:38:55.486Z,86.23
2022-08-16T06:39:49.151Z,86.03
2022-08-16T06:40:49.183Z,86.33
2022-08-16T06:41:45.253Z,86.13
2022-08-16T06:42:47.922Z,85.83
2022-08-16T06:43:46.231Z,85.53
2022-08-16T06:44:45.229Z,85.13
2022-08-16T06:45:45.231Z,85.23
2022-08-16T06:46:50.411Z,84.99
2022-08-16T06:47:54.334Z,84.89
2022-08-16T06:48:51.070Z,84.69
2022-08-16T06:49:52.837Z,84.59
2022-08-16T06:50:46.909Z,84.19
2022-08-16T06:51:47.964Z,84.09
2022-08-16T06:52:57.299Z,83.89
2022-08-16T06:53:46.140Z,83.69
2022-08-16T06:54:49.784Z,83.25
2022-08-16T06:55:45.165Z,83.25
2022-08-16T06:56:45.067Z,83.65
2022-08-16T06:57:45.059Z,83.25
2022-08-16T06:58:45.094Z,83.15
2022-08-16T06:59:52.366Z,83.05
2022-08-16T07:00:46.067Z,82.65
2022-08-16T07:01:54.443Z,82.55
2022-08-16T07:02:51.587Z,82.61
2022-08-16T07:03:55.542Z,82.31
2022-08-16T07:04:46.082Z,81.67
2022-08-16T07:05:44.960Z,81.67
2022-08-16T07:06:45.096Z,81.18
2022-08-16T07:07:45.012Z,81.37
2022-08-16T07:08:45.910Z,80.64
2022-08-16T07:09:44.953Z,80.64
2022-08-16T07:10:45.024Z,80.54
2022-08-16T07:11:47.725Z,80.64
2022-08-16T07:12:45.843Z,79.70
2022-08-16T07:14:00.546Z,79.50
2022-08-16T07:14:45.831Z,79.16
2022-08-16T07:15:50.475Z,79.16
2022-08-16T07:16:45.789Z,78.67
2022-08-16T07:17:44.772Z,78.47
2022-08-16T07:18:59.248Z,78.07
2022-08-16T07:20:02.548Z,77.57
2022-08-16T07:20:47.619Z,77.33
2022-08-16T07:21:54.347Z,77.23
2022-08-16T07:22:53.110Z,77.53
2022-08-16T07:23:45.732Z,77.23
2022-08-16T07:24:45.608Z,76.83
2022-08-16T07:25:44.954Z,76.83
2022-08-16T07:26:48.717Z,76.83
2022-08-16T07:27:44.669Z,77.23
2022-08-16T07:28:44.647Z,77.09
2022-08-16T07:29:44.625Z,76.00
2022-08-16T07:30:46.275Z,75.37
2022-08-16T07:31:44.585Z,75.80
2022-08-16T07:32:51.532Z,75.76
2022-08-16T07:33:52.272Z,75.67
2022-08-16T07:34:48.416Z,74.77
2022-08-16T07:35:49.866Z,75.07
2022-08-16T07:36:45.535Z,75.10
2022-08-16T07:37:45.501Z,74.71
2022-08-16T07:38:44.536Z,74.90
2022-08-16T07:39:44.587Z,75.07
2022-08-16T07:41:00.323Z,74.67
2022-08-16T07:41:45.468Z,74.71
2022-08-16T07:42:44.467Z,74.80
2022-08-16T07:43:44.468Z,74.41
2022-08-16T07:44:49.159Z,74.80
2022-08-16T07:45:49.467Z,74.37
2022-08-16T07:46:45.391Z,74.37
2022-08-16T07:47:44.413Z,74.37
2022-08-16T07:48:44.385Z,74.57
2022-08-16T07:49:53.271Z,74.37
2022-08-16T07:50:57.138Z,74.67
2022-08-16T07:51:45.361Z,75.01
2022-08-16T07:52:44.332Z,74.80
2022-08-16T07:53:44.301Z,75.10
2022-08-16T07:54:45.826Z,75.01
2022-08-16T07:55:47.913Z,75.20
2022-08-16T07:56:44.265Z,74.90
2022-08-16T07:57:55.786Z,75.20
2022-08-16T07:58:45.290Z,75.10
2022-08-16T07:59:46.042Z,74.71
2022-08-16T08:00:44.229Z,75.01
2022-08-16T08:01:44.328Z,74.90
2022-08-16T08:02:44.203Z,74.80
2022-08-16T08:03:48.819Z,75.10
2022-08-16T08:04:45.164Z,75.20
2022-08-16T08:05:44.281Z,75.20
2022-08-16T08:06:44.843Z,75.04
2022-08-16T08:07:45.233Z,75.44
2022-08-16T08:08:51.412Z,75.50
2022-08-16T08:09:45.933Z,75.10
2022-08-16T08:10:44.083Z,75.07
2022-08-16T08:12:00.017Z,74.67
2022-08-16T08:12:45.092Z,73.74
2022-08-16T08:13:44.097Z,73.54
2022-08-16T08:14:44.041Z,73.14
2022-08-16T08:15:53.150Z,72.55
2022-08-16T08:16:45.278Z,72.55
2022-08-16T08:17:44.216Z,72.74
2022-08-16T08:18:49.790Z,72.64
2022-08-16T08:19:45.021Z,73.14
2022-08-16T08:20:45.215Z,72.74
2022-08-16T08:21:59.026Z,72.61
2022-08-16T08:22:44.927Z,72.21
2022-08-16T08:23:44.398Z,72.21
2022-08-16T08:24:44.368Z,71.51
2022-08-16T08:25:53.655Z,71.78
2022-08-16T08:26:50.127Z,71.78
2022-08-16T08:27:44.865Z,71.15
2022-08-16T08:28:44.004Z,71.05
2022-08-16T08:29:43.823Z,70.75
2022-08-16T08:30:52.149Z,71.05
2022-08-16T08:31:44.818Z,70.95
2022-08-16T08:32:58.313Z,69.96
2022-08-16T08:33:47.332Z,69.56
2022-08-16T08:34:46.438Z,69.26
2022-08-16T08:35:43.865Z,69.56
2022-08-16T08:36:44.451Z,69.36
2022-08-16T08:37:55.190Z,69.66
2022-08-16T08:38:46.256Z,69.76
2022-08-16T08:39:54.914Z,68.76
2022-08-16T08:40:44.779Z,68.43
2022-08-16T08:41:43.680Z,68.73
2022-08-16T08:42:43.725Z,68.60
2022-08-16T08:43:43.640Z,68.70
2022-08-16T08:44:43.623Z,68.60
2022-08-16T08:45:48.194Z,68.60
2022-08-16T08:46:44.663Z,68.37
2022-08-16T08:47:44.609Z,66.78
2022-08-16T08:48:44.718Z,67.18
2022-08-16T08:49:50.401Z,66.28
2022-08-16T08:50:50.217Z,66.81
2022-08-16T08:51:44.546Z,66.88
2022-08-16T08:52:43.557Z,66.38
2022-08-16T08:53:43.506Z,66.78
2022-08-16T08:54:43.519Z,66.35
2022-08-16T08:55:43.491Z,65.95
2022-08-16T08:56:45.354Z,65.56
2022-08-16T08:57:43.474Z,66.25
2022-08-16T08:58:54.863Z,64.86
2022-08-16T08:59:44.468Z,65.89
2022-08-16T09:00:51.174Z,65.78
2022-08-16T09:01:57.047Z,65.66
2022-08-16T09:02:52.153Z,65.26
2022-08-16T09:03:44.468Z,65.26
2022-08-16T09:04:43.376Z,65.66
2022-08-16T09:05:44.122Z,65.75
2022-08-16T09:06:44.515Z,65.95
2022-08-16T09:08:01.514Z,65.86
2022-08-16T09:08:47.481Z,65.86
2022-08-16T09:09:43.314Z,65.66
2022-08-16T09:10:43.269Z,65.29
2022-08-16T09:11:43.345Z,65.59
2022-08-16T09:12:46.585Z,65.99
2022-08-16T09:13:48.383Z,65.95
2022-08-16T09:14:49.546Z,66.05
2022-08-16T09:15:44.229Z,65.56
2022-08-16T09:17:01.772Z,65.56
2022-08-16T09:17:52.092Z,65.36
2022-08-16T09:18:44.202Z,65.33
2022-08-16T09:19:43.228Z,64.83
2022-08-16T09:20:59.410Z,64.40
2022-08-16T09:21:44.223Z,64.50
2022-08-16T09:22:43.911Z,64.37
2022-08-16T09:23:44.206Z,63.39
2022-08-16T09:24:52.507Z,62.85
2022-08-16T09:25:44.098Z,62.07
2022-08-16T09:26:45.249Z,60.41
2022-08-16T09:27:57.353Z,60.71
2022-08-16T09:29:15.467Z,60.11
2022-08-16T09:29:44.360Z,60.11
2022-08-16T09:30:44.393Z,59.72
2022-08-16T09:31:43.007Z,60.61
2022-08-16T09:32:47.002Z,60.61
2022-08-16T09:33:42.974Z,60.68
2022-08-16T09:34:43.041Z,59.69
2022-08-16T09:35:43.067Z,59.09
2022-08-16T09:36:46.211Z,59.00
2022-08-16T09:37:44.663Z,57.21
2022-08-16T09:38:43.917Z,58.07
2022-08-16T09:39:46.986Z,58.67
2022-08-16T09:40:44.219Z,58.15
2022-08-16T09:41:42.882Z,57.65
2022-08-16T09:42:56.073Z,56.17
2022-08-16T09:44:00.811Z,57.68
2022-08-16T09:45:09.495Z,56.40
2022-08-16T09:45:43.825Z,56.30
2022-08-16T09:46:48.768Z,56.59
2022-08-16T09:47:56.631Z,57.09
2022-08-16T09:48:44.789Z,57.39
2022-08-16T09:49:43.780Z,57.46
2022-08-16T09:50:43.777Z,57.33
2022-08-16T09:51:42.795Z,57.82
2022-08-16T09:52:44.501Z,57.30
2022-08-16T09:53:43.736Z,56.71
2022-08-16T09:54:44.358Z,57.20
2022-08-16T09:55:44.454Z,57.37
2022-08-16T09:56:53.260Z,57.28
2022-08-16T09:57:43.661Z,57.50
2022-08-16T09:59:03.734Z,57.60
2022-08-16T09:59:43.669Z,58.81
2022-08-16T10:00:44.690Z,57.89
2022-08-16T10:01:43.661Z,58.29
2022-08-16T10:02:44.200Z,58.49
2022-08-16T10:04:02.407Z,58.16
2022-08-16T10:04:47.378Z,57.97
2022-08-16T10:05:43.585Z,57.67
2022-08-16T10:06:46.113Z,57.57
2022-08-16T10:07:45.038Z,57.57
2022-08-16T10:08:55.404Z,58.04
2022-08-16T10:09:45.208Z,57.24
2022-08-16T10:10:44.536Z,57.15
2022-08-16T10:11:50.575Z,57.64
2022-08-16T10:12:43.472Z,56.85
2022-08-16T10:13:42.532Z,56.56
2022-08-16T10:14:46.003Z,57.34
2022-08-16T10:15:42.557Z,57.45
2022-08-16T10:16:42.415Z,57.74
2022-08-16T10:17:43.422Z,57.22
2022-08-16T10:19:00.318Z,57.02
2022-08-16T10:19:43.485Z,56.82
2022-08-16T10:20:42.428Z,57.15
2022-08-16T10:21:42.363Z,58.53
2022-08-16T10:22:42.361Z,57.91
2022-08-16T10:23:42.409Z,57.71
2022-08-16T10:24:55.861Z,57.88
2022-08-16T10:27:17.135Z,56.27
2022-08-16T10:27:20.711Z,56.67
2022-08-16T10:27:47.112Z,56.67
2022-08-16T10:28:43.360Z,56.37
2022-08-16T10:30:00.870Z,56.23
2022-08-16T10:30:43.270Z,56.53
2022-08-16T10:31:44.242Z,56.21
2022-08-16T10:32:42.226Z,56.50
2022-08-16T10:33:42.217Z,56.01
2022-08-16T10:34:42.896Z,56.18
2022-08-16T10:35:46.747Z,55.95
2022-08-16T10:36:42.861Z,55.66
2022-08-16T10:37:42.231Z,55.56
2022-08-16T10:38:42.313Z,55.95
2022-08-16T10:39:42.522Z,56.15
2022-08-16T10:40:45.452Z,53.86
2022-08-16T10:41:42.101Z,54.47
2022-08-16T10:42:42.089Z,54.90
2022-08-16T10:43:42.102Z,55.51
2022-08-16T10:44:42.475Z,56.30
2022-08-16T10:45:42.201Z,56.04
2022-08-16T10:46:43.037Z,56.36
2022-08-16T10:47:42.016Z,57.07
2022-08-16T10:48:42.020Z,57.57
2022-08-16T10:49:43.000Z,57.37
2022-08-16T10:50:42.066Z,58.09
2022-08-16T10:52:01.387Z,58.61
2022-08-16T10:52:42.976Z,58.81
2022-08-16T10:53:41.940Z,59.41
2022-08-16T10:55:44.602Z,59.14
2022-08-16T10:56:56.030Z,59.20
2022-08-16T10:57:42.914Z,58.61
2022-08-16T10:58:41.876Z,58.22
2022-08-16T10:59:51.775Z,57.92
2022-08-16T11:00:42.875Z,58.51
2022-08-16T11:01:44.220Z,57.79
2022-08-16T11:02:59.864Z,56.85
2022-08-16T11:03:44.567Z,56.85
2022-08-16T11:07:06.681Z,56.85
2022-08-16T11:07:43.591Z,55.94
2022-08-16T11:08:45.475Z,54.53
2022-08-16T11:09:43.219Z,54.40
2022-08-16T11:11:06.727Z,54.13
2022-08-16T11:12:42.778Z,54.28
2022-08-16T11:13:58.765Z,53.78
2022-08-16T11:15:11.331Z,53.17
2022-08-16T11:15:47.855Z,52.78
2022-08-16T11:17:45.073Z,53.64
2022-08-16T11:19:02.863Z,54.97
2022-08-16T11:20:42.943Z,56.09
2022-08-16T11:22:48.632Z,56.78
2022-08-16T11:23:56.900Z,56.68
2022-08-16T11:24:44.930Z,56.46
2022-08-16T11:26:07.453Z,56.13
2022-08-16T11:26:42.513Z,55.71
2022-08-16T11:27:41.523Z,54.68
2022-08-16T11:29:42.535Z,54.01
2022-08-16T11:30:41.472Z,54.40
2022-08-16T11:31:45.535Z,53.32
2022-08-16T11:32:41.475Z,52.01
2022-08-16T11:33:56.830Z,52.31
2022-08-16T11:35:05.679Z,52.28
2022-08-16T11:35:44.030Z,52.48
2022-08-16T11:36:53.667Z,52.58
2022-08-16T11:38:51.656Z,51.86
2022-08-16T11:39:42.426Z,52.09
2022-08-16T11:40:44.366Z,52.61
2022-08-16T11:41:43.618Z,53.22
2022-08-16T11:42:41.307Z,54.26
2022-08-16T11:43:41.305Z,53.86
2022-08-16T11:44:52.976Z,53.96
2022-08-16T11:45:42.348Z,54.19
2022-08-16T11:46:44.633Z,54.68
2022-08-16T11:47:42.306Z,54.41
2022-08-16T11:48:41.240Z,55.00
2022-08-16T11:49:41.230Z,55.30
2022-08-16T11:50:45.063Z,55.60
2022-08-16T11:51:41.582Z,56.19
2022-08-16T11:52:41.265Z,56.58
2022-08-16T11:53:42.206Z,56.29
2022-08-16T11:54:41.883Z,56.48
2022-08-16T11:55:44.040Z,55.87
2022-08-16T11:56:53.180Z,56.06
2022-08-16T11:57:42.123Z,55.35
2022-08-16T11:58:41.159Z,54.43
2022-08-16T11:59:41.110Z,54.28
2022-08-16T12:00:50.298Z,53.96
2022-08-16T12:01:44.615Z,52.65
2022-08-16T12:02:45.937Z,52.14
2022-08-16T12:03:42.168Z,51.72
2022-08-16T12:04:41.106Z,51.62
2022-08-16T12:05:41.056Z,51.00
2022-08-16T12:06:40.995Z,50.63
2022-08-16T12:07:41.189Z,51.15
2022-08-16T12:08:41.285Z,51.45
2022-08-16T12:09:43.561Z,52.03
2022-08-16T12:10:41.000Z,51.74
2022-08-16T12:11:41.003Z,52.06
2022-08-16T12:12:40.941Z,52.14
2022-08-16T12:13:41.891Z,50.98
2022-08-16T12:14:40.926Z,51.69
2022-08-16T12:15:40.927Z,52.21
2022-08-16T12:16:40.890Z,52.48
2022-08-16T12:17:41.979Z,52.26
2022-08-16T12:18:40.903Z,52.36
2022-08-16T12:19:40.885Z,52.33
2022-08-16T12:20:40.935Z,52.60
2022-08-16T12:21:58.837Z,51.72
2022-08-16T12:22:41.822Z,52.08
2022-08-16T12:23:40.807Z,51.79
2022-08-16T12:24:40.789Z,51.17
2022-08-16T12:25:40.791Z,50.85
2022-08-16T12:26:40.762Z,50.78
2022-08-16T12:27:40.745Z,51.79
2022-08-16T12:28:53.969Z,51.79
2022-08-16T12:29:41.741Z,51.17
2022-08-16T12:30:40.805Z,50.37
2022-08-16T12:32:01.084Z,49.07
2022-08-16T12:32:42.194Z,48.18
2022-08-16T12:33:44.381Z,47.89
2022-08-16T12:34:50.771Z,48.25
2022-08-16T12:35:41.678Z,46.39
2022-08-16T12:36:40.628Z,47.30
2022-08-16T12:37:41.549Z,46.91
2022-08-16T12:38:47.961Z,47.22
2022-08-16T12:39:50.881Z,48.35
2022-08-16T12:40:41.864Z,50.29
2022-08-16T12:41:45.109Z,51.28
2022-08-16T12:42:52.467Z,51.47
2022-08-16T12:43:45.042Z,51.67
2022-08-16T12:44:40.530Z,51.99
2022-08-16T12:45:40.531Z,52.78
2022-08-16T12:46:40.587Z,52.90
2022-08-16T12:47:40.494Z,53.91
2022-08-16T12:48:42.377Z,53.91
2022-08-16T12:49:42.245Z,53.59
2022-08-16T12:50:40.467Z,53.42
2022-08-16T12:51:58.019Z,54.01
2022-08-16T12:52:44.500Z,53.91
2022-08-16T12:53:41.419Z,54.60
2022-08-16T12:54:40.459Z,54.60
2022-08-16T12:55:42.209Z,54.80
2022-08-16T12:56:40.388Z,54.28
2022-08-16T12:57:40.386Z,54.28
2022-08-16T12:58:50.440Z,53.09
2022-08-16T12:59:41.337Z,53.91
2022-08-16T13:00:40.411Z,54.82